Data for 01/20/2007

Time Sea-Level Adjusted Pressure Absolute Pressure Temperature Relative Humidity Dew Point   
(mb) (inHg) (mb) (inHg) (C) (F) (%) (C) (F)
00:05 1016 30 845 24.95 -1 30.2 68 -6.2 20.8
00:10 1016 30 845 24.95 -0.9 30.3 70 -5.8 21.6
00:15 1016 30 845 24.95 -1.1 30 70 -5.8 21.5
00:20 1016 30 845 24.95 -0.9 30.3 69 -6 21.2
00:25 1016 30 845 24.95 -1 30.2 70 -5.8 21.6
00:30 1016 30 845 24.95 -1.2 29.8 70 -6.1 21
00:35 1015 29.97 845 24.95 -1 30.3 70 -5.8 21.5
00:40 1015 29.97 845 24.95 -1 30.3 71 -5.7 21.8
00:45 1015 29.97 845 24.95 -1 30.1 70 -5.9 21.5
00:50 1015 29.97 844 24.92 -0.7 30.8 68 -5.8 21.6
00:55 1015 29.97 844 24.92 -1 30.2 68 -6.1 21
01:00 1015 29.97 844 24.92 -1.1 30 68 -6.2 20.8
01:05 1015 29.97 844 24.92 -1 30.1 66 -6.6 20.1
01:10 1015 29.97 844 24.92 -1.1 30.1 70 -5.8 21.5
01:15 1015 29.97 844 24.92 -1.4 29.4 71 -6 21.2
01:20 1015 29.97 844 24.92 -1.5 29.3 72 -5.9 21.4
01:25 1015 29.97 844 24.92 -1.7 28.9 72 -6.1 21
01:30 1015 29.97 844 24.92 -1.8 28.8 70 -6.5 20.3
01:35 1015 29.97 844 24.92 -1.7 29 69 -6.7 19.9
01:40 1015 29.97 844 24.92 -1.6 29.2 70 -6.4 20.5
01:45 1015 29.97 844 24.92 -2 28.4 73 -6.2 20.9
01:50 1015 29.97 844 24.92 -2.5 27.6 75 -6.2 20.8
01:55 1015 29.97 844 24.92 -2.7 27.1 76 -6.3 20.6
02:00 1015 29.97 844 24.92 -3.1 26.4 78 -6.4 20.5
02:05 1015 29.97 844 24.92 -3.2 26.2 78 -6.5 20.3
02:10 1015 29.97 844 24.92 -3.7 25.3 82 -6.4 20.5
02:15 1015 29.97 844 24.92 -3.1 26.4 76 -6.9 19.6
02:20 1015 29.97 844 24.92 -2.5 27.6 74 -6.5 20.3
02:25 1015 29.97 844 24.92 -2.3 27.9 73 -6.5 20.3
02:30 1015 29.97 844 24.92 -2.6 27.4 73 -6.7 19.9
02:35 1015 29.97 844 24.92 -3.1 26.4 76 -6.7 19.9
02:40 1015 29.97 844 24.92 -3.3 26.1 76 -7 19.4
02:45 1015 29.97 844 24.92 -2.9 26.8 73 -7.1 19.3
02:50 1015 29.97 844 24.92 -3.1 26.3 72 -7.4 18.6
02:55 1015 29.97 844 24.92 -2.9 26.8 71 -7.4 18.6
03:00 1014 29.94 844 24.92 -3 26.5 72 -7.3 18.8
03:05 1014 29.94 844 24.92 -3.4 25.8 73 -7.6 18.3
03:10 1014 29.94 844 24.92 -3.1 26.3 72 -7.6 18.4
03:15 1014 29.94 843 24.89 -3 26.6 71 -7.6 18.3
03:20 1014 29.94 843 24.89 -3.2 26.2 72 -7.6 18.3
03:25 1014 29.94 843 24.89 -3.4 25.8 72 -7.8 18
03:30 1014 29.94 843 24.89 -3.3 26 72 -7.7 18.1
03:35 1014 29.94 843 24.89 -3.2 26.2 71 -7.7 18.1
03:40 1014 29.94 843 24.89 -2.7 27.1 68 -7.7 18.1
03:45 1014 29.94 843 24.89 -2.1 28.1 67 -7.6 18.4
03:50 1014 29.94 843 24.89 -1.9 28.5 67 -7.4 18.8
03:55 1014 29.94 843 24.89 -1.8 28.8 67 -7.1 19.3
04:00 1014 29.94 843 24.89 -2 28.4 70 -6.8 19.8
04:05 1014 29.94 843 24.89 -2.5 27.5 73 -6.7 20
04:10 1014 29.94 843 24.89 -2.7 27.1 74 -6.7 20
04:15 1014 29.94 843 24.89 -2.7 27.1 74 -6.8 19.8
04:20 1014 29.94 843 24.89 -2.9 26.7 75 -6.8 19.8
04:25 1013 29.91 843 24.89 -3.3 26.1 76 -6.9 19.6
04:30 1013 29.91 843 24.89 -3.8 25.1 79 -6.9 19.5
04:35 1013 29.91 843 24.89 -3.9 25 78 -7.1 19.2
04:40 1013 29.91 842 24.86 -3.8 25.2 77 -7.3 18.9
04:45 1013 29.91 842 24.86 -3.7 25.3 78 -7.1 19.3
04:50 1013 29.91 842 24.86 -3.6 25.6 76 -7.2 19.1
04:55 1013 29.91 842 24.86 -3.5 25.7 77 -6.9 19.6
05:00 1013 29.91 842 24.86 -3.5 25.7 77 -6.9 19.6
05:05 1013 29.91 842 24.86 -3.2 26.2 76 -6.9 19.6
05:10 1013 29.91 842 24.86 -3 26.6 75 -6.9 19.6
05:15 1013 29.91 842 24.86 -2.8 27 73 -7 19.4
05:20 1013 29.91 842 24.86 -2.6 27.4 71 -7.2 19.1
05:25 1013 29.91 842 24.86 -2.2 28 69 -7.1 19.2
05:30 1013 29.91 842 24.86 -2.7 27.2 73 -6.9 19.5
05:35 1013 29.91 842 24.86 -3.1 26.4 74 -7.2 19.1
05:40 1013 29.91 842 24.86 -3.2 26.3 73 -7.4 18.6
05:45 1013 29.91 842 24.86 -2.8 26.9 71 -7.4 18.6
05:50 1013 29.91 842 24.86 -2.6 27.3 71 -7.2 19
05:55 1013 29.91 842 24.86 -2.6 27.3 71 -7.2 19.1
06:00 1013 29.91 842 24.86 -2.3 27.8 70 -7.1 19.2
06:05 1012 29.88 842 24.86 -2.1 28.3 69 -7.1 19.2
06:10 1012 29.88 842 24.86 -1.9 28.6 69 -6.9 19.6
06:15 1012 29.88 842 24.86 -2 28.3 70 -6.7 19.9
06:20 1012 29.88 842 24.86 -2.1 28.3 72 -6.5 20.2
06:25 1012 29.88 842 24.86 -2.3 27.8 73 -6.6 20.1
06:30 1012 29.88 842 24.86 -2.5 27.4 73 -6.7 20
06:35 1012 29.88 842 24.86 -2.7 27.1 74 -6.7 20
06:40 1012 29.88 842 24.86 -2.7 27.2 74 -6.6 20.1
06:45 1012 29.88 842 24.86 -2.6 27.3 74 -6.6 20.1
06:50 1012 29.88 841 24.83 -2.8 27 75 -6.7 20
06:55 1012 29.88 841 24.83 -2.8 26.9 75 -6.7 20
07:00 1012 29.88 841 24.83 -2.9 26.7 75 -6.7 19.9
07:05 1012 29.88 841 24.83 -2.7 27.1 72 -7 19.3
07:10 1012 29.88 841 24.83 -2.5 27.6 70 -7.1 19.2
07:15 1012 29.88 841 24.83 -2.3 27.8 70 -7.1 19.3
07:20 1012 29.88 841 24.83 -2.3 27.9 70 -7 19.4
07:25 1012 29.88 841 24.83 -2.3 27.9 71 -6.8 19.7
07:30 1012 29.88 841 24.83 -2.3 27.8 71 -6.9 19.6
07:35 1012 29.88 841 24.83 -2.4 27.6 71 -7 19.5
07:40 1012 29.88 841 24.83 -2.3 27.9 71 -6.9 19.6
07:45 1012 29.88 841 24.83 -2.1 28.2 70 -6.9 19.5
07:50 1012 29.88 841 24.83 -2 28.3 68 -7.1 19.2
07:55 1012 29.88 841 24.83 -1.9 28.5 69 -6.9 19.5
08:00 1012 29.88 841 24.83 -2 28.4 71 -6.6 20.1
08:05 1012 29.88 841 24.83 -2 28.4 67 -7.2 19
08:10 1012 29.88 841 24.83 -2 28.3 69 -7.1 19.3
08:15 1012 29.88 841 24.83 -2.3 27.9 69 -7.1 19.2
08:20 1012 29.88 841 24.83 -2.5 27.6 70 -7.2 19.1
08:25 1012 29.88 841 24.83 -2.5 27.6 70 -7.2 19.1
08:30 1012 29.88 841 24.83 -2.6 27.4 74 -6.6 20.1
08:35 1012 29.88 841 24.83 -2.8 26.9 76 -6.5 20.2
08:40 1012 29.88 841 24.83 -2.9 26.8 76 -6.6 20.2
08:45 1012 29.88 841 24.83 -2.8 26.9 75 -6.6 20
08:50 1012 29.88 841 24.83 -2.9 26.8 76 -6.5 20.2
08:55 1012 29.88 841 24.83 -2.7 27.2 74 -6.7 19.9
09:00 1012 29.88 841 24.83 -2.3 27.9 72 -6.6 20.1
09:05 1012 29.88 841 24.83 -2.1 28.2 73 -6.4 20.5
09:10 1012 29.88 841 24.83 -2.2 28 72 -6.5 20.2
09:15 1012 29.88 841 24.83 -1.9 28.6 70 -6.7 19.9
09:20 1012 29.88 841 24.83 -1.9 28.7 69 -6.8 19.8
09:25 1012 29.88 841 24.83 -1.6 29.1 70 -6.4 20.4
09:30 1012 29.88 841 24.83 -1.6 29.2 68 -6.7 19.9
09:35 1012 29.88 841 24.83 -1.6 29.1 70 -6.3 20.6
09:40 1012 29.88 841 24.83 -1.6 29.1 71 -6.3 20.7
09:45 1012 29.88 841 24.83 -1.7 28.9 68 -7 19.5
09:50 1012 29.88 841 24.83 -1.4 29.5 69 -6.4 20.4
09:55 1012 29.88 841 24.83 -1.4 29.4 71 -6.1 21.1
10:00 1012 29.88 841 24.83 -1.4 29.5 72 -5.8 21.5
10:05 1012 29.88 841 24.83 -1.6 29.2 71 -6.2 20.8
10:10 1012 29.88 841 24.83 -1.4 29.4 69 -6.4 20.4
10:15 1012 29.88 841 24.83 -1 30.2 67 -6.4 20.4
10:20 1012 29.88 841 24.83 -0.6 31 67 -6 21.2
10:25 1012 29.88 841 24.83 -0.4 31.2 69 -5.5 22.1
10:30 1012 29.88 841 24.83 -0.6 31 71 -5.2 22.7
10:35 1012 29.88 841 24.83 -0.4 31.3 72 -4.9 23.2
10:40 1012 29.88 841 24.83 -0 32 71 -4.7 23.5
10:45 1012 29.88 841 24.83 0.3 32.5 70 -4.6 23.6
10:50 1012 29.88 841 24.83 0.1 32.1 72 -4.4 24
10:55 1012 29.88 841 24.83 -0.4 31.3 75 -4.2 24.5
11:00 1012 29.88 841 24.83 -0.6 30.8 77 -4.2 24.4
11:05 1012 29.88 841 24.83 -0.9 30.3 78 -4.3 24.3
11:10 1012 29.88 841 24.83 -1 30.2 78 -4.4 24.1
11:15 1012 29.88 841 24.83 -1.1 30 80 -4.2 24.4
11:20 1012 29.88 841 24.83 -1.3 29.7 82 -4 24.8
11:25 1012 29.88 841 24.83 -1.3 29.6 83 -3.8 25.2
11:30 1012 29.88 841 24.83 -1.7 28.9 86 -3.7 25.3
11:35 1012 29.88 841 24.83 -2 28.3 90 -3.5 25.6
11:40 1012 29.88 842 24.86 -2 28.4 89 -3.7 25.4
11:45 1012 29.88 842 24.86 -2.1 28.3 88 -3.8 25.1
11:50 1012 29.88 842 24.86 -2.2 28 88 -4 24.9
11:55 1012 29.88 842 24.86 -2.3 27.9 89 -3.9 25
12:00 1012 29.88 841 24.83 -2.3 27.9 90 -3.7 25.3
12:05 1012 29.88 841 24.83 -2.2 28 90 -3.7 25.4
12:10 1012 29.88 841 24.83 -2.3 27.9 90 -3.7 25.3
12:15 1012 29.88 841 24.83 -2.5 27.6 90 -3.8 25.1
12:20 1012 29.88 841 24.83 -2.8 27 92 -3.9 25
12:25 1012 29.88 841 24.83 -2.8 26.9 92 -3.9 24.9
12:30 1012 29.88 841 24.83 -2.8 26.9 93 -3.8 25.1
12:35 1012 29.88 841 24.83 -3 26.6 93 -4 24.9
12:40 1012 29.88 841 24.83 -3.2 26.2 93 -4.2 24.5
12:45 1012 29.88 841 24.83 -3.5 25.7 94 -4.3 24.2
12:50 1012 29.88 841 24.83 -3.6 25.5 95 -4.4 24.2
12:55 1012 29.88 841 24.83 -3.6 25.6 95 -4.3 24.3
13:00 1012 29.88 841 24.83 -3.4 25.9 95 -4.1 24.7
13:05 1012 29.88 841 24.83 -3.3 26.1 94 -4.1 24.7
13:10 1012 29.88 841 24.83 -3.3 26 95 -4.1 24.7
13:15 1012 29.88 841 24.83 -3.4 25.9 95 -4.2 24.5
13:20 1012 29.88 841 24.83 -3.3 26.1 94 -4.1 24.7
13:25 1012 29.88 841 24.83 -3.1 26.4 93 -4 24.7
13:30 1012 29.88 841 24.83 -2.9 26.9 93 -3.9 25
13:35 1012 29.88 841 24.83 -2.8 26.9 92 -4 24.8
13:40 1012 29.88 841 24.83 -2.9 26.7 92 -4.1 24.7
13:45 1012 29.88 841 24.83 -2.8 27 91 -4 24.8
13:50 1012 29.88 841 24.83 -2.4 27.7 90 -3.8 25.2
13:55 1012 29.88 841 24.83 -2.1 28.2 89 -3.7 25.4
14:00 1012 29.88 841 24.83 -1.5 29.4 88 -3.3 26.1
14:05 1012 29.88 841 24.83 -1 30.1 85 -3.3 26
14:10 1012 29.88 841 24.83 -1.4 29.4 85 -3.6 25.6
14:15 1012 29.88 841 24.83 -1.6 29.2 86 -3.6 25.5
14:20 1012 29.88 841 24.83 -1.7 28.9 88 -3.4 25.8
14:25 1012 29.88 841 24.83 -1.8 28.8 88 -3.5 25.7
14:30 1012 29.88 841 24.83 -1.7 28.9 88 -3.5 25.6
14:35 1012 29.88 841 24.83 -1.6 29.1 87 -3.5 25.6
14:40 1012 29.88 841 24.83 -1.6 29.1 87 -3.5 25.8
14:45 1012 29.88 841 24.83 -1.8 28.7 88 -3.6 25.5
14:50 1012 29.88 841 24.83 -1.6 29.1 87 -3.6 25.6
14:55 1012 29.88 841 24.83 -1.4 29.5 86 -3.5 25.7
15:00 1012 29.88 841 24.83 -1.4 29.5 84 -3.7 25.3
15:05 1012 29.88 841 24.83 -1.6 29.1 87 -3.6 25.6
15:10 1012 29.88 841 24.83 -1.9 28.5 88 -3.7 25.3
15:15 1012 29.88 841 24.83 -1.9 28.5 87 -3.7 25.3
15:20 1012 29.88 841 24.83 -1.9 28.6 88 -3.7 25.4
15:25 1012 29.88 841 24.83 -1.9 28.5 87 -3.8 25.1
15:30 1012 29.88 841 24.83 -2.1 28.2 87 -4.1 24.7
15:35 1012 29.88 841 24.83 -2.2 28 86 -4.2 24.4
15:40 1012 29.88 841 24.83 -2.4 27.7 86 -4.4 24.1
15:45 1012 29.88 841 24.83 -2.3 27.8 86 -4.3 24.2
15:50 1012 29.88 841 24.83 -2.3 27.8 86 -4.4 24.1
15:55 1012 29.88 841 24.83 -2.2 28 85 -4.4 24
16:00 1012 29.88 841 24.83 -2 28.4 83 -4.6 23.8
16:05 1012 29.88 841 24.83 -1.8 28.7 82 -4.6 23.7
16:10 1012 29.88 841 24.83 -1.7 28.9 80 -4.7 23.5
16:15 1012 29.88 841 24.83 -1.8 28.8 78 -5.1 22.9
16:20 1012 29.88 841 24.83 -1.7 28.9 77 -5.2 22.6
16:25 1012 29.88 841 24.83 -1.7 28.9 76 -5.4 22.3
16:30 1012 29.88 841 24.83 -1.5 29.3 75 -5.4 22.2
16:35 1012 29.88 841 24.83 -1.5 29.4 75 -5.4 22.3
16:40 1012 29.88 842 24.86 -1.5 29.3 74 -5.5 22.1
16:45 1012 29.88 842 24.86 -1.3 29.6 75 -5.3 22.5
16:50 1012 29.88 842 24.86 -1.2 29.8 74 -5.2 22.6
16:55 1012 29.88 842 24.86 -1.2 29.8 75 -5.1 22.8
17:00 1012 29.88 842 24.86 -1 30.1 74 -5.1 22.8
17:05 1013 29.91 842 24.86 -1.1 30 75 -5 23
17:10 1013 29.91 842 24.86 -1.1 30 73 -5.3 22.5
17:15 1013 29.91 842 24.86 -1.1 30 73 -5.3 22.4
17:20 1013 29.91 842 24.86 -1.1 30 75 -5 22.9
17:25 1013 29.91 842 24.86 -1.2 29.9 76 -5 23.1
17:30 1013 29.91 842 24.86 -1.3 29.7 75 -5.2 22.7
17:35 1013 29.91 842 24.86 -1.3 29.7 74 -5.3 22.5
17:40 1013 29.91 842 24.86 -1.4 29.4 74 -5.5 22
17:45 1013 29.91 842 24.86 -1.4 29.4 72 -5.8 21.5
17:50 1013 29.91 842 24.86 -1.6 29 73 -5.9 21.3
17:55 1013 29.91 843 24.89 -1.9 28.6 74 -5.9 21.4
18:00 1013 29.91 843 24.89 -1.8 28.8 73 -6.1 21
18:05 1014 29.94 843 24.89 -1.8 28.8 73 -5.9 21.3
18:10 1014 29.94 843 24.89 -1.9 28.5 76 -5.7 21.8
18:15 1014 29.94 843 24.89 -2.1 28.3 77 -5.6 21.9
18:20 1014 29.94 843 24.89 -2.1 28.2 79 -5.3 22.5
18:25 1014 29.94 843 24.89 -2.2 28 82 -4.9 23.1
18:30 1014 29.94 843 24.89 -2.3 27.9 84 -4.6 23.8
18:35 1014 29.94 843 24.89 -2.4 27.7 87 -4.2 24.5
18:40 1014 29.94 843 24.89 -2.4 27.7 89 -4 24.8
18:45 1014 29.94 843 24.89 -2.4 27.6 89 -4 24.9
18:50 1014 29.94 843 24.89 -2.8 27 92 -3.9 24.9
18:55 1014 29.94 843 24.89 -2.8 27 92 -3.9 25
19:00 1014 29.94 844 24.92 -2.6 27.3 92 -3.8 25.2
19:05 1014 29.94 844 24.92 -2.5 27.4 92 -3.7 25.4
19:10 1015 29.97 844 24.92 -2.5 27.5 92 -3.6 25.4
19:15 1015 29.97 844 24.92 -2.5 27.5 92 -3.7 25.4
19:20 1015 29.97 844 24.92 -2.8 27 92 -3.8 25.1
19:25 1015 29.97 844 24.92 -2.9 26.8 93 -3.9 25.1
19:30 1015 29.97 844 24.92 -2.9 26.8 92 -4.1 24.7
19:35 1015 29.97 844 24.92 -3 26.6 90 -4.3 24.2
19:40 1015 29.97 844 24.92 -3.1 26.4 89 -4.6 23.7
19:45 1015 29.97 844 24.92 -3.3 26 89 -4.9 23.2
19:50 1015 29.97 844 24.92 -3.3 26 89 -4.8 23.3
19:55 1015 29.97 844 24.92 -3.2 26.2 89 -4.8 23.4
20:00 1015 29.97 844 24.92 -3.1 26.4 89 -4.7 23.6
20:05 1015 29.97 844 24.92 -3.1 26.4 89 -4.7 23.5
20:10 1015 29.97 844 24.92 -3 26.6 88 -4.7 23.5
20:15 1015 29.97 845 24.95 -2.9 26.8 87 -4.8 23.3
20:20 1015 29.97 845 24.95 -2.9 26.8 87 -4.8 23.3
20:25 1015 29.97 845 24.95 -2.8 26.9 86 -4.9 23.1
20:30 1016 30 845 24.95 -3 26.6 86 -5.1 22.9
20:35 1016 30 845 24.95 -3.1 26.4 86 -5.1 22.9
20:40 1016 30 845 24.95 -3.1 26.5 86 -5.1 22.7
20:45 1016 30 845 24.95 -3.1 26.3 85 -5.4 22.3
20:50 1016 30 845 24.95 -3.4 25.9 85 -5.5 22
20:55 1016 30 845 24.95 -3.6 25.6 85 -5.7 21.8
21:00 1016 30 845 24.95 -3.6 25.6 85 -5.8 21.6
21:05 1016 30 845 24.95 -3.5 25.6 84 -5.8 21.6
21:10 1016 30 846 24.98 -3.5 25.6 83 -6 21.3
21:15 1016 30 846 24.98 -3.7 25.3 81 -6.6 20.2
21:20 1016 30 846 24.98 -3.9 24.9 81 -6.8 19.8
21:25 1017 30.03 846 24.98 -3.7 25.3 80 -6.8 19.8
21:30 1017 30.03 846 24.98 -3.5 25.8 77 -7 19.5
21:35 1017 30.03 846 24.98 -3.4 25.8 77 -6.9 19.6
21:40 1017 30.03 846 24.98 -3.4 26 77 -6.8 19.8
21:45 1017 30.03 846 24.98 -3.3 26 76 -6.9 19.6
21:50 1017 30.03 846 24.98 -3.4 26 75 -7.2 19
21:55 1017 30.03 846 24.98 -3.5 25.7 75 -7.4 18.7
22:00 1017 30.03 846 24.98 -3.4 25.8 74 -7.4 18.6
22:05 1017 30.03 847 25.01 -3.5 25.8 74 -7.5 18.5
22:10 1017 30.03 847 25.01 -3.4 25.8 73 -7.6 18.4
22:15 1017 30.03 847 25.01 -3.5 25.8 73 -7.6 18.3
22:20 1018 30.06 847 25.01 -3.4 25.8 73 -7.6 18.3
22:25 1018 30.06 847 25.01 -3.4 25.9 72 -7.8 17.9
22:30 1018 30.06 847 25.01 -3.5 25.8 71 -8 17.7
22:35 1018 30.06 847 25.01 -3.4 25.8 69 -8.2 17.2
22:40 1018 30.06 847 25.01 -3.4 25.8 69 -8.3 17.1
22:45 1018 30.06 847 25.01 -3.5 25.7 68 -8.7 16.4
22:50 1018 30.06 847 25.01 -3.6 25.6 68 -8.7 16.4
22:55 1018 30.06 847 25.01 -3.6 25.5 67 -8.8 16.1
23:00 1018 30.06 847 25.01 -3.6 25.5 67 -8.8 16.1
23:05 1018 30.06 848 25.04 -3.7 25.3 68 -8.7 16.3
23:10 1018 30.06 848 25.04 -3.8 25.1 69 -8.7 16.3
23:15 1019 30.09 848 25.04 -4 24.8 69 -8.8 16.1
23:20 1019 30.09 848 25.04 -4.1 24.7 69 -8.9 16
23:25 1019 30.09 848 25.04 -4.1 24.6 70 -8.7 16.3
23:30 1019 30.09 848 25.04 -4.2 24.4 70 -9 15.9
23:35 1019 30.09 848 25.04 -4.2 24.4 69 -9.1 15.6
23:40 1019 30.09 848 25.04 -4.1 24.5 69 -9.1 15.7
23:45 1019 30.09 848 25.04 -4.1 24.6 69 -9 15.8
23:50 1019 30.09 848 25.04 -4.4 24.1 71 -8.9 16
23:55 1019 30.09 848 25.04 -4.6 23.7 72 -9 15.9
24:00 1019 30.09 848 25.04 -4.7 23.5 72 -9 15.8